Armstrong, Alabama
Current Conditions -  °F | °C
As of 8:15 PM on Sunday 25 Jan 2015 (Local Time) from KAUO Reporting Station
Few Clouds Few Clouds  
Wind Chill: 45°   Ceiling: Unl
Heat Index: 48°   Visibility: 10mi
Dew Point: 30°   Wind: 7mph
Humidity: 50%   Direction: 200°SSW
Pressure: 29.8"   Gusts: NA
Location:  32.2227°N, 85.6394°W
Report Text: KAUO 260215Z AUTO 20006KT 10SM FEW080 09/M01 A2980 RMK AO1
Loading
Personal Weather Stations






























Interactive Weather Map New forecast layout! Learn more

10-Day Weather Forecast

Advertisements
Track Severe Weather on mobile